createdAt,value
2023-02-05T00:01:30.330Z,3.07
2023-02-05T00:03:40.083Z,2.70
2023-02-05T00:05:48.766Z,3.00
2023-02-05T00:07:57.780Z,2.90
2023-02-05T00:10:06.859Z,2.03
2023-02-05T00:12:15.545Z,2.43
2023-02-05T00:14:25.035Z,2.30
2023-02-05T00:16:36.704Z,2.63
2023-02-05T00:18:45.852Z,2.80
2023-02-05T00:20:54.496Z,1.90
2023-02-05T00:23:03.419Z,1.90
2023-02-05T00:25:12.535Z,1.57
2023-02-05T00:27:21.234Z,1.60
2023-02-05T00:29:29.887Z,1.60
2023-02-05T00:31:41.048Z,1.33
2023-02-05T00:33:50.347Z,1.30
2023-02-05T00:35:59.038Z,1.37
2023-02-05T00:38:07.654Z,1.50
2023-02-05T00:40:16.812Z,0.97
2023-02-05T00:42:25.562Z,1.17
2023-02-05T00:44:34.651Z,1.30
2023-02-05T00:46:45.484Z,1.27
2023-02-05T00:48:54.534Z,1.17
2023-02-05T00:51:03.429Z,1.37
2023-02-05T00:53:12.368Z,1.33
2023-02-05T00:55:21.012Z,1.10
2023-02-05T00:57:29.614Z,1.20
2023-02-05T00:59:39.033Z,1.20
2023-02-05T01:01:49.521Z,1.30
2023-02-05T01:03:58.528Z,1.30
2023-02-05T01:06:07.355Z,1.07
2023-02-05T01:08:15.892Z,0.90
2023-02-05T01:10:24.683Z,1.10
2023-02-05T01:12:33.697Z,0.70
2023-02-05T01:14:42.817Z,1.00
2023-02-05T01:16:52.798Z,1.23
2023-02-05T01:19:01.424Z,1.17
2023-02-05T01:21:10.111Z,1.00
2023-02-05T01:23:19.078Z,1.33
2023-02-05T01:25:28.101Z,1.27
2023-02-05T01:27:37.114Z,1.00
2023-02-05T01:29:45.968Z,1.43
2023-02-05T01:31:56.469Z,1.00
2023-02-05T01:34:05.371Z,0.87
2023-02-05T01:36:14.191Z,0.73
2023-02-05T01:38:24.068Z,1.23
2023-02-05T01:40:32.760Z,1.10
2023-02-05T01:42:41.428Z,1.00
2023-02-05T01:45:05.270Z,1.20
2023-02-05T01:47:15.944Z,0.90
2023-02-05T01:49:27.394Z,1.10
2023-02-05T01:51:37.841Z,1.37
2023-02-05T01:53:48.532Z,1.40
2023-02-05T01:55:58.560Z,1.10
2023-02-05T01:58:07.405Z,1.00
2023-02-05T02:00:16.747Z,0.90
2023-02-05T02:02:27.253Z,1.10
2023-02-05T02:04:39.770Z,0.90
2023-02-05T02:06:49.116Z,0.87
2023-02-05T02:08:58.104Z,0.90
2023-02-05T02:11:08.458Z,1.20
2023-02-05T02:13:17.325Z,1.00
2023-02-05T02:15:28.212Z,0.80
2023-02-05T02:17:40.283Z,1.10
2023-02-05T02:19:53.987Z,1.20
2023-02-05T02:22:26.541Z,2.17
2023-02-05T02:24:46.210Z,1.97
2023-02-05T02:27:24.621Z,1.90
2023-02-05T02:29:36.901Z,1.00
2023-02-05T02:31:48.776Z,0.97
2023-02-05T02:33:59.842Z,1.10
2023-02-05T02:36:11.069Z,1.03
2023-02-05T02:38:23.277Z,1.43
2023-02-05T02:40:34.601Z,1.27
2023-02-05T02:42:45.400Z,1.07
2023-02-05T02:44:58.906Z,0.73
2023-02-05T02:47:09.184Z,1.03
2023-02-05T02:49:20.044Z,1.00
2023-02-05T02:51:29.989Z,0.93
2023-02-05T02:53:40.747Z,0.90
2023-02-05T02:55:50.654Z,0.90
2023-02-05T02:58:00.334Z,0.87
2023-02-05T03:00:13.928Z,0.70
2023-02-05T03:02:23.448Z,0.70
2023-02-05T03:04:34.322Z,0.90
2023-02-05T03:06:45.567Z,0.80
2023-02-05T03:08:56.290Z,1.30
2023-02-05T03:11:08.992Z,0.87
2023-02-05T03:13:17.952Z,0.80
2023-02-05T03:15:28.582Z,1.13
2023-02-05T03:17:37.677Z,1.10
2023-02-05T03:19:46.752Z,1.00
2023-02-05T03:21:58.782Z,1.10
2023-02-05T03:24:07.914Z,1.13
2023-02-05T03:26:27.111Z,1.00
2023-02-05T03:28:36.197Z,1.00
2023-02-05T03:30:51.115Z,0.80
2023-02-05T03:33:05.249Z,0.70
2023-02-05T03:35:20.045Z,0.93
2023-02-05T03:37:32.843Z,0.60
2023-02-05T03:39:47.964Z,0.33
2023-02-05T03:42:01.482Z,0.60
2023-02-05T03:44:15.534Z,0.70
2023-02-05T03:46:30.800Z,0.63
2023-02-05T03:48:42.131Z,0.40
2023-02-05T03:50:54.669Z,0.83
2023-02-05T03:53:07.229Z,0.37
2023-02-05T03:55:17.973Z,0.50
2023-02-05T03:57:29.089Z,0.70
2023-02-05T03:59:39.115Z,0.90
2023-02-05T04:01:49.476Z,0.80
2023-02-05T04:03:58.128Z,0.60
2023-02-05T04:06:07.892Z,0.57
2023-02-05T04:08:16.636Z,0.63
2023-02-05T04:10:25.540Z,0.67
2023-02-05T04:12:34.661Z,0.60
2023-02-05T04:14:43.815Z,0.60
2023-02-05T04:16:54.338Z,0.63
2023-02-05T04:19:03.173Z,0.60
2023-02-05T04:21:11.894Z,0.47
2023-02-05T04:23:20.975Z,0.60
2023-02-05T04:25:29.900Z,0.77
2023-02-05T04:27:39.024Z,0.80
2023-02-05T04:29:47.602Z,0.83
2023-02-05T04:31:58.409Z,0.43
2023-02-05T04:34:07.153Z,0.90
2023-02-05T04:36:15.896Z,0.77
2023-02-05T04:38:24.966Z,0.70
2023-02-05T04:40:33.526Z,0.60
2023-02-05T04:42:42.448Z,0.60
2023-02-05T04:44:51.415Z,0.60
2023-02-05T04:47:02.110Z,0.50
2023-02-05T04:49:10.834Z,0.83
2023-02-05T04:51:19.675Z,0.40
2023-02-05T04:53:28.711Z,0.67
2023-02-05T04:55:37.318Z,0.60
2023-02-05T04:57:46.169Z,0.30
2023-02-05T04:59:55.201Z,0.43
2023-02-05T05:02:05.948Z,0.70
2023-02-05T05:04:14.929Z,0.50
2023-02-05T05:06:23.588Z,0.50
2023-02-05T05:08:32.425Z,0.50
2023-02-05T05:10:41.375Z,0.67
2023-02-05T05:12:50.764Z,0.40
2023-02-05T05:14:59.665Z,0.37
2023-02-05T05:17:10.196Z,0.37
2023-02-05T05:19:19.388Z,0.60
2023-02-05T05:21:27.981Z,0.47
2023-02-05T05:23:37.493Z,0.40
2023-02-05T05:25:46.873Z,0.43
2023-02-05T05:27:55.820Z,0.20
2023-02-05T05:30:04.619Z,0.37
2023-02-05T05:32:15.952Z,0.50
2023-02-05T05:34:25.235Z,0.60
2023-02-05T05:36:34.252Z,0.40
2023-02-05T05:38:42.789Z,0.50
2023-02-05T05:41:09.413Z,0.20
2023-02-05T05:43:36.426Z,0.20
2023-02-05T05:45:45.607Z,0.40
2023-02-05T05:47:56.145Z,0.30
2023-02-05T05:50:05.042Z,0.43
2023-02-05T05:52:13.771Z,0.53
2023-02-05T05:54:22.701Z,0.30
2023-02-05T05:56:31.251Z,0.47
2023-02-05T05:58:40.262Z,0.20
2023-02-05T06:00:49.243Z,0.40
2023-02-05T06:02:59.705Z,0.50
2023-02-05T06:05:09.021Z,0.50
2023-02-05T06:07:17.765Z,0.40
2023-02-05T06:09:26.686Z,0.60
2023-02-05T06:11:35.703Z,0.40
2023-02-05T06:13:44.683Z,0.40
2023-02-05T06:15:54.917Z,0.30
2023-02-05T06:18:05.407Z,0.20
2023-02-05T06:20:15.082Z,0.40
2023-02-05T06:22:24.148Z,0.53
2023-02-05T06:24:32.992Z,1.10
2023-02-05T06:26:42.261Z,0.47
2023-02-05T06:28:50.964Z,1.33
2023-02-05T06:30:59.736Z,0.70
2023-02-05T06:33:11.752Z,0.37
2023-02-05T06:35:20.539Z,0.60
2023-02-05T06:37:46.141Z,0.50
2023-02-05T06:39:56.294Z,0.43
2023-02-05T06:42:04.973Z,1.03
2023-02-05T06:44:13.700Z,0.50
2023-02-05T06:46:23.017Z,1.10
2023-02-05T06:48:33.264Z,0.53
2023-02-05T06:50:42.283Z,0.27
2023-02-05T06:52:51.417Z,0.40
2023-02-05T06:55:00.190Z,0.50
2023-02-05T06:57:09.271Z,0.50
2023-02-05T06:59:18.425Z,0.40
2023-02-05T07:01:27.801Z,0.30
2023-02-05T07:03:38.307Z,0.40
2023-02-05T07:05:48.736Z,0.50
2023-02-05T07:07:58.026Z,0.40
2023-02-05T07:10:07.544Z,0.40
2023-02-05T07:12:16.262Z,0.30
2023-02-05T07:14:25.318Z,0.40
2023-02-05T07:16:34.688Z,0.20
2023-02-05T07:18:45.248Z,0.50
2023-02-05T07:20:53.923Z,0.50
2023-02-05T07:23:02.566Z,0.40
2023-02-05T07:25:11.336Z,0.60
2023-02-05T07:27:20.219Z,0.77
2023-02-05T07:29:30.514Z,0.30
2023-02-05T07:31:39.802Z,0.30
2023-02-05T07:33:50.256Z,0.50
2023-02-05T07:35:58.931Z,0.70
2023-02-05T07:38:08.066Z,0.40
2023-02-05T07:40:17.018Z,0.43
2023-02-05T07:42:25.791Z,0.30
2023-02-05T07:44:34.978Z,0.23
2023-02-05T07:46:43.815Z,0.50
2023-02-05T07:48:54.278Z,0.40
2023-02-05T07:51:03.121Z,0.40
2023-02-05T07:53:12.140Z,0.40
2023-02-05T07:55:21.256Z,0.40
2023-02-05T07:57:30.550Z,0.50
2023-02-05T07:59:39.523Z,0.77
2023-02-05T08:01:48.223Z,0.60
2023-02-05T08:03:59.025Z,0.60
2023-02-05T08:06:08.645Z,0.57
2023-02-05T08:08:17.429Z,0.80
2023-02-05T08:10:26.315Z,0.40
2023-02-05T08:12:35.238Z,0.33
2023-02-05T08:14:44.107Z,0.70
2023-02-05T08:16:52.784Z,0.77
2023-02-05T08:19:03.611Z,0.40
2023-02-05T08:21:12.763Z,0.60
2023-02-05T08:23:21.645Z,0.50
2023-02-05T08:25:30.690Z,0.40
2023-02-05T08:27:39.690Z,0.57
2023-02-05T08:29:49.246Z,0.50
2023-02-05T08:31:58.310Z,0.40
2023-02-05T08:34:08.904Z,0.37
2023-02-05T08:36:17.875Z,0.67
2023-02-05T08:38:26.895Z,0.30
2023-02-05T08:40:35.702Z,0.50
2023-02-05T08:42:44.415Z,0.30
2023-02-05T08:44:53.453Z,0.50
2023-02-05T08:47:02.264Z,0.80
2023-02-05T08:49:12.290Z,0.40
2023-02-05T08:51:23.071Z,0.53
2023-02-05T08:53:31.684Z,0.60
2023-02-05T08:55:40.725Z,0.40
2023-02-05T08:57:49.849Z,0.60
2023-02-05T08:59:59.440Z,0.47
2023-02-05T09:02:08.277Z,0.50
2023-02-05T09:04:19.306Z,0.40
2023-02-05T09:06:28.415Z,0.30
2023-02-05T09:08:37.639Z,0.50
2023-02-05T09:10:46.764Z,0.20
2023-02-05T09:12:55.292Z,0.60
2023-02-05T09:15:04.250Z,0.50
2023-02-05T09:17:14.487Z,0.50
2023-02-05T09:19:25.537Z,0.50
2023-02-05T09:21:34.525Z,0.50
2023-02-05T09:23:44.305Z,0.60
2023-02-05T09:25:53.423Z,0.50
2023-02-05T09:28:02.752Z,0.73
2023-02-05T09:30:12.723Z,0.50
2023-02-05T09:32:21.798Z,0.43
2023-02-05T09:34:33.700Z,0.43
2023-02-05T09:36:42.641Z,0.60
2023-02-05T09:39:01.979Z,0.50
2023-02-05T09:41:21.349Z,0.73
2023-02-05T09:43:34.389Z,0.40
2023-02-05T09:45:50.548Z,0.40
2023-02-05T09:48:03.783Z,0.40
2023-02-05T09:50:18.590Z,0.57
2023-02-05T09:52:29.285Z,0.50
2023-02-05T09:54:41.485Z,0.67
2023-02-05T09:56:51.042Z,0.40
2023-02-05T09:59:00.928Z,0.40
2023-02-05T10:01:15.098Z,0.47
2023-02-05T10:03:26.835Z,0.40
2023-02-05T10:05:40.268Z,0.63
2023-02-05T10:07:54.989Z,0.30
2023-02-05T10:10:23.069Z,0.40
2023-02-05T10:12:40.359Z,0.43
2023-02-05T10:14:54.961Z,0.40
2023-02-05T10:17:12.229Z,0.40
2023-02-05T10:19:28.863Z,0.47
2023-02-05T10:21:51.421Z,0.50
2023-02-05T10:24:10.759Z,0.50
2023-02-05T10:26:21.294Z,0.50
2023-02-05T10:28:47.012Z,0.60
2023-02-05T10:30:57.838Z,0.50
2023-02-05T10:33:10.646Z,0.63
2023-02-05T10:35:24.576Z,0.70
2023-02-05T10:37:44.117Z,0.57
2023-02-05T10:39:52.740Z,0.47
2023-02-05T10:42:03.804Z,0.50
2023-02-05T10:44:14.957Z,0.87
2023-02-05T10:46:23.746Z,0.70
2023-02-05T10:48:39.819Z,0.50
2023-02-05T10:50:51.776Z,0.67
2023-02-05T10:53:02.230Z,0.60
2023-02-05T10:55:13.802Z,0.50
2023-02-05T10:57:23.843Z,0.30
2023-02-05T10:59:33.307Z,0.50
2023-02-05T11:01:42.211Z,0.80
2023-02-05T11:03:55.173Z,0.30
2023-02-05T11:06:05.824Z,0.30
2023-02-05T11:08:29.386Z,0.63
2023-02-05T11:10:39.576Z,0.97
2023-02-05T11:12:49.266Z,1.00
2023-02-05T11:15:00.323Z,0.50
2023-02-05T11:17:11.365Z,0.40
2023-02-05T11:19:23.195Z,0.50
2023-02-05T11:21:46.866Z,0.80
2023-02-05T11:23:59.832Z,0.40
2023-02-05T11:26:23.668Z,0.47
2023-02-05T11:28:33.279Z,0.50
2023-02-05T11:30:57.534Z,0.60
2023-02-05T11:33:20.403Z,0.37
2023-02-05T11:35:31.193Z,0.67
2023-02-05T11:37:41.402Z,0.70
2023-02-05T11:39:55.557Z,0.60
2023-02-05T11:42:11.932Z,0.67
2023-02-05T11:44:23.086Z,0.80
2023-02-05T11:46:35.073Z,0.53
2023-02-05T11:48:44.860Z,0.60
2023-02-05T11:50:54.009Z,0.80
2023-02-05T11:53:12.176Z,0.60
2023-02-05T11:55:30.054Z,0.50
2023-02-05T11:57:42.088Z,0.50
2023-02-05T11:59:57.183Z,0.60
2023-02-05T12:02:39.212Z,0.73
2023-02-05T12:04:49.767Z,0.80
2023-02-05T12:07:00.177Z,0.50
2023-02-05T12:09:11.084Z,1.17
2023-02-05T12:11:25.606Z,0.60
2023-02-05T12:13:43.617Z,0.37
2023-02-05T12:15:59.671Z,0.57
2023-02-05T12:18:15.488Z,0.80
2023-02-05T12:20:27.948Z,0.40
2023-02-05T12:22:46.664Z,1.00
2023-02-05T12:25:07.756Z,0.50
2023-02-05T12:27:20.530Z,0.67
2023-02-05T12:29:40.518Z,0.37
2023-02-05T12:31:58.848Z,0.67
2023-02-05T12:34:16.364Z,0.43
2023-02-05T12:36:35.784Z,0.40
2023-02-05T12:38:53.177Z,0.70
2023-02-05T12:41:08.022Z,0.83
2023-02-05T12:43:25.847Z,0.80
2023-02-05T12:45:42.623Z,0.73
2023-02-05T12:48:01.536Z,0.97
2023-02-05T12:50:17.878Z,0.80
2023-02-05T12:52:33.592Z,0.70
2023-02-05T12:54:49.748Z,1.17
2023-02-05T12:57:01.325Z,0.83
2023-02-05T12:59:14.119Z,0.87
2023-02-05T13:01:25.599Z,0.70
2023-02-05T13:03:38.141Z,0.73
2023-02-05T13:05:49.469Z,1.17
2023-02-05T13:08:02.724Z,0.70
2023-02-05T13:10:18.381Z,0.90
2023-02-05T13:12:28.927Z,1.00
2023-02-05T13:14:40.403Z,0.90
2023-02-05T13:16:52.285Z,0.90
2023-02-05T13:19:02.926Z,0.73
2023-02-05T13:21:32.401Z,0.60
2023-02-05T13:24:00.649Z,0.73
2023-02-05T13:26:27.099Z,1.00
2023-02-05T13:28:41.653Z,1.43
2023-02-05T13:30:52.028Z,0.60
2023-02-05T13:33:04.318Z,1.00
2023-02-05T13:35:12.928Z,1.07
2023-02-05T13:37:30.209Z,0.80
2023-02-05T13:39:45.983Z,1.30
2023-02-05T13:42:05.237Z,1.13
2023-02-05T13:44:23.563Z,0.90
2023-02-05T13:46:40.253Z,0.80
2023-02-05T13:49:22.946Z,0.93
2023-02-05T13:51:42.389Z,1.13
2023-02-05T13:53:57.320Z,3.00
2023-02-05T13:56:11.122Z,1.10
2023-02-05T13:58:22.350Z,0.90
2023-02-05T14:00:31.640Z,0.70
2023-02-05T14:02:42.744Z,0.87
2023-02-05T14:04:54.963Z,0.43
2023-02-05T14:07:07.136Z,0.70
2023-02-05T14:09:23.097Z,1.00
2023-02-05T14:11:32.921Z,1.40
2023-02-05T14:13:41.987Z,0.60
2023-02-05T14:15:51.417Z,1.57
2023-02-05T14:18:02.342Z,1.20
2023-02-05T14:20:25.961Z,1.47
2023-02-05T14:22:38.810Z,1.00
2023-02-05T14:24:48.927Z,1.10
2023-02-05T14:27:00.769Z,0.77
2023-02-05T14:29:31.472Z,0.80
2023-02-05T14:31:58.111Z,1.40
2023-02-05T14:34:29.969Z,1.20
2023-02-05T14:36:41.219Z,1.07
2023-02-05T14:38:56.426Z,1.00
2023-02-05T14:41:06.501Z,1.10
2023-02-05T14:43:16.600Z,1.00
2023-02-05T14:45:27.988Z,0.80
2023-02-05T14:47:37.498Z,1.20
2023-02-05T14:49:48.434Z,1.43
2023-02-05T14:52:01.023Z,1.30
2023-02-05T14:54:17.216Z,1.20
2023-02-05T14:56:31.691Z,1.10
2023-02-05T14:58:45.208Z,1.30
2023-02-05T15:00:54.610Z,1.30
2023-02-05T15:03:22.871Z,1.90
2023-02-05T15:05:35.968Z,1.33
2023-02-05T15:07:46.331Z,1.57
2023-02-05T15:10:03.940Z,1.83
2023-02-05T15:12:31.363Z,3.40
2023-02-05T15:14:41.922Z,1.50
2023-02-05T15:17:07.184Z,1.40
2023-02-05T15:19:18.308Z,1.40
2023-02-05T15:21:29.746Z,1.30
2023-02-05T15:23:42.591Z,1.20
2023-02-05T15:25:58.206Z,1.93
2023-02-05T15:28:09.759Z,1.83
2023-02-05T15:30:20.439Z,1.50
2023-02-05T15:32:32.159Z,1.53
2023-02-05T15:34:41.553Z,1.40
2023-02-05T15:36:54.440Z,1.03
2023-02-05T15:39:07.675Z,1.20
2023-02-05T15:41:18.269Z,1.37
2023-02-05T15:43:28.201Z,0.97
2023-02-05T15:45:39.931Z,1.10
2023-02-05T15:47:48.621Z,1.67
2023-02-05T15:50:01.784Z,1.27
2023-02-05T15:52:10.868Z,1.40
2023-02-05T15:54:21.345Z,1.30
2023-02-05T15:56:35.434Z,1.57
2023-02-05T15:58:49.662Z,1.33
2023-02-05T16:00:59.152Z,1.37
2023-02-05T16:03:08.537Z,1.20
2023-02-05T16:05:19.144Z,1.00
2023-02-05T16:07:28.815Z,1.07
2023-02-05T16:09:38.816Z,1.50
2023-02-05T16:11:49.530Z,1.40
2023-02-05T16:14:04.648Z,1.20
2023-02-05T16:16:18.419Z,1.20
2023-02-05T16:18:32.830Z,1.30
2023-02-05T16:20:42.422Z,1.50
2023-02-05T16:22:55.629Z,1.70
2023-02-05T16:25:07.729Z,1.70
2023-02-05T16:27:19.722Z,2.27
2023-02-05T16:29:39.034Z,1.57
2023-02-05T16:31:59.403Z,1.23
2023-02-05T16:34:10.692Z,1.60
2023-02-05T16:36:21.954Z,1.20
2023-02-05T16:38:31.304Z,1.80
2023-02-05T16:40:43.119Z,1.90
2023-02-05T16:42:53.617Z,1.40
2023-02-05T16:45:07.352Z,1.93
2023-02-05T16:47:17.642Z,1.47
2023-02-05T16:49:33.362Z,1.87
2023-02-05T16:52:00.065Z,1.80
2023-02-05T16:56:53.293Z,1.47
2023-02-05T16:59:04.629Z,1.20
2023-02-05T17:01:13.964Z,1.50
2023-02-05T17:03:24.077Z,1.70
2023-02-05T17:05:34.849Z,1.60
2023-02-05T17:07:44.117Z,4.30
2023-02-05T17:09:53.308Z,6.27
2023-02-05T17:12:19.691Z,6.67
2023-02-05T17:14:31.501Z,2.97
2023-02-05T17:16:42.426Z,2.37
2023-02-05T17:18:58.749Z,3.80
2023-02-05T17:21:32.007Z,6.90
2023-02-05T17:23:41.159Z,4.23
2023-02-05T17:25:55.287Z,1.77
2023-02-05T17:28:04.872Z,2.00
2023-02-05T17:30:18.978Z,2.20
2023-02-05T17:32:28.946Z,2.33
2023-02-05T17:34:37.975Z,3.70
2023-02-05T17:36:47.027Z,4.47
2023-02-05T17:38:56.589Z,3.93
2023-02-05T17:41:23.341Z,3.23
2023-02-05T17:43:32.107Z,2.50
2023-02-05T17:45:44.549Z,2.00
2023-02-05T17:47:53.291Z,2.80
2023-02-05T17:50:02.223Z,2.13
2023-02-05T17:52:11.561Z,2.57
2023-02-05T17:54:21.649Z,1.77
2023-02-05T17:56:31.007Z,2.63
2023-02-05T17:58:40.237Z,2.80
2023-02-05T18:00:51.162Z,1.57
2023-02-05T18:03:00.669Z,1.77
2023-02-05T18:05:11.992Z,2.47
2023-02-05T18:07:22.490Z,2.33
2023-02-05T18:09:31.655Z,2.37
2023-02-05T18:11:40.477Z,2.63
2023-02-05T18:13:49.200Z,2.57
2023-02-05T18:16:03.375Z,2.10
2023-02-05T18:18:12.214Z,2.03
2023-02-05T18:20:22.115Z,1.93
2023-02-05T18:22:30.676Z,1.73
2023-02-05T18:24:39.386Z,1.93
2023-02-05T18:26:52.471Z,1.90
2023-02-05T18:29:01.325Z,1.63
2023-02-05T18:31:12.264Z,2.03
2023-02-05T18:33:20.916Z,1.63
2023-02-05T18:35:29.936Z,1.47
2023-02-05T18:37:39.155Z,1.50
2023-02-05T18:39:48.282Z,1.77
2023-02-05T18:41:57.612Z,2.00
2023-02-05T18:44:07.082Z,1.90
2023-02-05T18:46:18.135Z,2.80
2023-02-05T18:48:26.937Z,2.47
2023-02-05T18:50:35.911Z,3.03
2023-02-05T18:52:44.913Z,2.27
2023-02-05T18:54:54.523Z,3.53
2023-02-05T18:57:03.500Z,3.17
2023-02-05T18:59:15.892Z,2.73
2023-02-05T19:01:26.919Z,2.30
2023-02-05T19:03:35.647Z,2.67
2023-02-05T19:05:44.370Z,2.93
2023-02-05T19:07:52.984Z,2.93
2023-02-05T19:10:02.944Z,2.40
2023-02-05T19:12:12.097Z,2.47
2023-02-05T19:14:21.973Z,1.67
2023-02-05T19:16:33.063Z,2.23
2023-02-05T19:18:41.778Z,2.13
2023-02-05T19:20:50.791Z,2.40
2023-02-05T19:22:59.419Z,2.30
2023-02-05T19:25:08.654Z,2.60
2023-02-05T19:27:18.578Z,2.40
2023-02-05T19:29:27.555Z,2.60
2023-02-05T19:31:38.863Z,2.37
2023-02-05T19:33:47.618Z,2.53
2023-02-05T19:35:58.872Z,2.87
2023-02-05T19:38:07.592Z,3.27
2023-02-05T19:40:16.537Z,2.27
2023-02-05T19:42:26.104Z,2.30
2023-02-05T19:44:35.397Z,2.43
2023-02-05T19:46:46.843Z,2.57
2023-02-05T19:48:56.578Z,2.90
2023-02-05T19:51:05.537Z,3.03
2023-02-05T19:53:14.671Z,2.00
2023-02-05T19:55:23.558Z,2.33
2023-02-05T19:57:32.755Z,2.30
2023-02-05T19:59:41.359Z,2.30
2023-02-05T20:01:51.721Z,2.73
2023-02-05T20:04:02.818Z,2.63
2023-02-05T20:06:11.920Z,2.73
2023-02-05T20:08:20.919Z,3.20
2023-02-05T20:10:29.903Z,3.50
2023-02-05T20:12:39.232Z,2.80
2023-02-05T20:14:48.101Z,2.63
2023-02-05T20:16:58.632Z,3.67
2023-02-05T20:19:08.017Z,2.90
2023-02-05T20:21:18.912Z,2.47
2023-02-05T20:23:28.438Z,2.77
2023-02-05T20:25:37.981Z,3.23
2023-02-05T20:27:46.953Z,2.77
2023-02-05T20:30:13.523Z,4.10
2023-02-05T20:32:24.721Z,3.30
2023-02-05T20:34:36.144Z,2.97
2023-02-05T20:36:45.208Z,2.67
2023-02-05T20:38:56.896Z,2.80
2023-02-05T20:41:12.434Z,2.70
2023-02-05T20:43:21.563Z,2.67
2023-02-05T20:45:32.887Z,2.67
2023-02-05T20:47:44.486Z,3.47
2023-02-05T20:49:53.157Z,3.37
2023-02-05T20:52:02.198Z,3.07
2023-02-05T20:54:11.149Z,3.43
2023-02-05T20:56:21.595Z,3.00
2023-02-05T20:58:30.516Z,2.83
2023-02-05T21:00:39.739Z,3.10
2023-02-05T21:02:50.416Z,2.80
2023-02-05T21:05:00.228Z,2.50
2023-02-05T21:07:09.335Z,2.93
2023-02-05T21:09:18.308Z,2.80
2023-02-05T21:11:28.027Z,2.37
2023-02-05T21:13:37.313Z,2.40
2023-02-05T21:15:53.629Z,2.40
2023-02-05T21:18:04.626Z,2.40
2023-02-05T21:20:13.419Z,2.70
2023-02-05T21:22:22.457Z,2.70
2023-02-05T21:24:31.795Z,2.57
2023-02-05T21:26:41.633Z,2.33
2023-02-05T21:28:51.017Z,2.30
2023-02-05T21:31:03.020Z,2.03
2023-02-05T21:33:13.275Z,2.23
2023-02-05T21:35:22.278Z,2.47
2023-02-05T21:37:31.003Z,2.10
2023-02-05T21:39:41.073Z,2.03
2023-02-05T21:41:51.043Z,2.27
2023-02-05T21:44:00.517Z,1.73
2023-02-05T21:46:09.945Z,1.90
2023-02-05T21:48:20.716Z,2.07
2023-02-05T21:50:29.500Z,1.53
2023-02-05T21:52:42.799Z,1.93
2023-02-05T21:54:51.814Z,1.80
2023-02-05T21:57:00.926Z,1.90
2023-02-05T21:59:10.072Z,1.83
2023-02-05T22:01:19.731Z,1.47
2023-02-05T22:03:31.979Z,1.63
2023-02-05T22:05:41.004Z,1.83
2023-02-05T22:07:49.745Z,1.53
2023-02-05T22:09:59.017Z,1.30
2023-02-05T22:12:08.422Z,1.83
2023-02-05T22:14:17.149Z,1.57
2023-02-05T22:16:26.797Z,1.80
2023-02-05T22:18:37.878Z,1.43
2023-02-05T22:20:46.914Z,1.57
2023-02-05T22:22:56.083Z,1.73
2023-02-05T22:25:05.361Z,1.47
2023-02-05T22:27:14.212Z,1.90
2023-02-05T22:29:23.383Z,1.83
2023-02-05T22:31:32.457Z,1.20
2023-02-05T22:33:43.658Z,1.47
2023-02-05T22:35:54.067Z,1.57
2023-02-05T22:38:02.735Z,1.10
2023-02-05T22:40:12.194Z,1.30
2023-02-05T22:42:20.806Z,1.27
2023-02-05T22:44:29.928Z,1.27
2023-02-05T22:46:41.025Z,1.47
2023-02-05T22:48:51.850Z,1.43
2023-02-05T22:51:04.279Z,1.30
2023-02-05T22:53:13.769Z,1.57
2023-02-05T22:55:22.436Z,1.50
2023-02-05T22:57:31.566Z,1.30
2023-02-05T22:59:40.665Z,1.37
2023-02-05T23:01:49.689Z,1.10
2023-02-05T23:04:00.312Z,1.17
2023-02-05T23:06:12.920Z,1.10
2023-02-05T23:08:21.832Z,1.10
2023-02-05T23:10:31.228Z,1.20
2023-02-05T23:12:40.555Z,1.10
2023-02-05T23:14:49.684Z,1.13
2023-02-05T23:17:00.091Z,1.00
2023-02-05T23:19:11.790Z,1.13
2023-02-05T23:21:22.094Z,0.80
2023-02-05T23:23:31.299Z,1.07
2023-02-05T23:25:40.237Z,0.93
2023-02-05T23:27:49.425Z,1.00
2023-02-05T23:29:58.049Z,0.77
2023-02-05T23:32:07.202Z,1.03
2023-02-05T23:34:17.692Z,0.90
2023-02-05T23:36:26.558Z,0.53
2023-02-05T23:38:36.000Z,1.00
2023-02-05T23:40:44.996Z,0.50
2023-02-05T23:42:54.021Z,0.90
2023-02-05T23:45:03.018Z,0.83
2023-02-05T23:47:11.762Z,0.80
2023-02-05T23:49:23.526Z,0.33
2023-02-05T23:51:32.358Z,0.80
2023-02-05T23:53:41.857Z,0.63
2023-02-05T23:55:51.716Z,0.90
2023-02-05T23:58:00.874Z,0.90
